Ipora, Brazil
Current Conditions -  °F | °C
As of 9:00 AM on Thursday 23 Oct 2014 (Local Time) from SBGO Reporting Station
Light Rain Light Rain  
Wind Chill: 73°   Ceiling: 10000
Heat Index: 73°   Visibility: 6mi
Dew Point: 63°   Wind: 1mph
Humidity: 69%   Direction: 360°N
Pressure: 30.12"   Gusts: NA
Location:  16.44°S, 51.12°W
Report Text: SBGO 231100Z 36001KT 9999 -RA SCT040 BKN100 23/17 Q1020
Loading
Personal Weather Stations






























Interactive Weather Map
Tropical Storm Tracking
New forecast layout! Learn more

10-Day Weather Forecast

Advertisements
Track Severe Weather on mobile